地図

経路データ

SID SEASON NUMBER BASIN SUBBASIN NAME ISO_TIME NATURE LAT LON WMO_WIND WMO_PRES WMO_AGENCY TRACK_TYPE DIST2LAND LANDFALL IFLAG USA_AGENCY USA_ATCF_ID USA_LAT USA_LON USA_RECORD USA_STATUS USA_WIND USA_PRES USA_SSHS USA_R34_NE USA_R34_SE USA_R34_SW USA_R34_NW USA_R50_NE USA_R50_SE USA_R50_SW USA_R50_NW USA_R64_NE USA_R64_SE USA_R64_SW USA_R64_NW USA_POCI USA_ROCI USA_RMW USA_EYE TOKYO_LAT TOKYO_LON TOKYO_GRADE TOKYO_WIND TOKYO_PRES TOKYO_R50_DIR TOKYO_R50_LONG TOKYO_R50_SHORT TOKYO_R30_DIR TOKYO_R30_LONG TOKYO_R30_SHORT TOKYO_LAND CMA_LAT CMA_LON CMA_CAT CMA_WIND CMA_PRES HKO_LAT HKO_LON HKO_CAT HKO_WIND HKO_PRES NEWDELHI_LAT NEWDELHI_LON NEWDELHI_GRADE NEWDELHI_WIND NEWDELHI_PRES NEWDELHI_CI NEWDELHI_DP NEWDELHI_POCI REUNION_LAT REUNION_LON REUNION_TYPE REUNION_WIND REUNION_PRES REUNION_TNUM REUNION_CI REUNION_RMW REUNION_R34_NE REUNION_R34_SE REUNION_R34_SW REUNION_R34_NW REUNION_R50_NE REUNION_R50_SE REUNION_R50_SW REUNION_R50_NW REUNION_R64_NE REUNION_R64_SE REUNION_R64_SW REUNION_R64_NW BOM_LAT BOM_LON BOM_TYPE BOM_WIND BOM_PRES BOM_TNUM BOM_CI BOM_RMW BOM_R34_NE BOM_R34_SE BOM_R34_SW BOM_R34_NW BOM_R50_NE BOM_R50_SE BOM_R50_SW BOM_R50_NW BOM_R64_NE BOM_R64_SE BOM_R64_SW BOM_R64_NW BOM_ROCI BOM_POCI BOM_EYE BOM_POS_METHOD BOM_PRES_METHOD NADI_LAT NADI_LON NADI_CAT NADI_WIND NADI_PRES WELLINGTON_LAT WELLINGTON_LON WELLINGTON_WIND WELLINGTON_PRES DS824_LAT DS824_LON DS824_STAGE DS824_WIND DS824_PRES TD9636_LAT TD9636_LON TD9636_STAGE TD9636_WIND TD9636_PRES TD9635_LAT TD9635_LON TD9635_WIND TD9635_PRES TD9635_ROCI NEUMANN_LAT NEUMANN_LON NEUMANN_CLASS NEUMANN_WIND NEUMANN_PRES MLC_LAT MLC_LON MLC_CLASS MLC_WIND MLC_PRES USA_GUST BOM_GUST BOM_GUST_PER REUNION_GUST REUNION_GUST_PER USA_SEAHGT USA_SEARAD_NE USA_SEARAD_SE USA_SEARAD_SW USA_SEARAD_NW STORM_SPEED STORM_DIR
1947041S16070 1947 16 SI MM NOT_NAMED 1947-02-09 12:00:00 NR -16.2000 69.9000 reunion main 1357 1343 _____O________ -1 -16.2000 69.9000 99 9.90000 3 223
1947041S16070 1947 16 SI MM NOT_NAMED 1947-02-09 15:00:00 NR -16.3001 69.7968 main 1343 1329 _____P________ -1 -16.3001 69.7968 99 3 225
1947041S16070 1947 16 SI MM NOT_NAMED 1947-02-09 18:00:00 NR -16.4013 69.6903 main 1329 1315 _____P________ -1 -16.4013 69.6903 99 3 226
1947041S16070 1947 16 SI MM NOT_NAMED 1947-02-09 21:00:00 NR -16.5049 69.5773 main 1315 1301 _____P________ -1 -16.5049 69.5773 99 3 227
1947041S16070 1947 16 SI MM NOT_NAMED 1947-02-10 00:00:00 NR -16.6120 69.4545 main 1301 1277 _____P________ -1 -16.6120 69.4545 99 3 229
1947041S16070 1947 16 SI MM NOT_NAMED 1947-02-10 03:00:00 NR -16.7239 69.3186 main 1277 1263 _____P________ -1 -16.7239 69.3186 99 4 230
1947041S16070 1947 16 SI MM NOT_NAMED 1947-02-10 06:00:00 NR -16.8418 69.1664 main 1263 1236 _____P________ -1 -16.8418 69.1664 99 4 232
1947041S16070 1947 16 SI MM NOT_NAMED 1947-02-10 09:00:00 NR -16.9668 68.9947 main 1236 1212 _____P________ -1 -16.9668 68.9947 99 4 234
1947041S16070 1947 16 SI MM NOT_NAMED 1947-02-10 12:00:00 NR -17.1000 68.8000 reunion main 1212 1185 _____O________ -1 -17.1000 68.8000 99 9.90000 5 235
1947041S16070 1947 16 SI MM NOT_NAMED 1947-02-10 15:00:00 NR -17.2421 68.5805 main 1188 1188 _____P________ -1 -17.2421 68.5805 99 8 34
1947041S16070 1947 16 SI MM NOT_NAMED 1947-02-10 18:00:00 TS -16.4364 69.2757 main 1289 1289 O____P___OO___ jtwc_sh SH171947 -15.3000 70.0000 -1 -17.3911 68.3393 99 -15.3000 70.0000 TC -15.3000 70.0000 7 11 39
1947041S16070 1947 16 SI MM NOT_NAMED 1947-02-10 21:00:00 TS -16.4058 69.2945 main 1289 1275 P____P___PP___ SH171947 -15.5400 69.8051 -1 -17.5448 68.0812 99 -15.5400 69.8051 TC -15.5657 69.8018 7 1 227
1947041S16070 1947 16 SI MM NOT_NAMED 1947-02-11 00:00:00 TS -16.5210 69.1811 main 1275 1247 O____P___OP___ jtwc_sh SH171947 -15.8000 69.6000 -1 -17.7007 67.8108 99 -15.8000 69.6000 TC -15.8351 69.5927 7 4 224
1947041S16070 1947 16 SI MM NOT_NAMED 1947-02-11 03:00:00 TS -16.6956 69.0056 main 1247 1219 P____P___PP___ SH171947 -16.0924 69.3724 -1 -17.8565 67.5327 99 -16.0924 69.3724 TC -16.1119 69.3623 7 6 225
1947041S16070 1947 16 SI MM NOT_NAMED 1947-02-11 06:00:00 TS -16.9300 68.7502 main 1219 1178 O____P___OO___ jtwc_sh SH171947 -16.4000 69.1000 -1 -18.0098 67.2517 99 -16.4000 69.1000 TC -16.4000 69.1000 2 7 227
1947041S16070 1947 16 SI MM NOT_NAMED 1947-02-11 09:00:00 TS -17.1634 68.4891 main 1178 1141 P____P___PP___ SH171947 -16.7000 68.7650 -1 -18.1584 66.9726 99 -16.7000 68.7650 TC -16.7009 68.7981 2 7 228
1947041S16070 1947 16 SI MM NOT_NAMED 1947-02-11 12:00:00 TS -17.3916 68.2141 reunion main 1141 1114 O____O___OP___ jtwc_sh SH171947 -17.0000 68.4000 -1 -18.3000 66.7000 99 9.90000 -17.0000 68.4000 TC -17.0073 68.4599 2 7 230
1947041S16070 1947 16 SI MM NOT_NAMED 1947-02-11 15:00:00 TS -17.6042 67.9386 main 1104 1067 P____P___PP___ SH171947 -17.2999 68.0648 -1 -18.4281 66.4490 99 -17.2999 68.0648 TC -17.3101 68.0917 2 7 233
1947041S16070 1947 16 SI MM NOT_NAMED 1947-02-11 18:00:00 TS -17.8215 67.6146 main 1067 1017 O____P___OO___ jtwc_sh SH171947 -17.6000 67.7000 -1 -18.5502 66.2019 99 -17.6000 67.7000 TC -17.6000 67.7000 2 9 237
1947041S16070 1947 16 SI MM NOT_NAMED 1947-02-11 21:00:00 TS -18.0723 67.1923 main 1017 970 P____P___PP___ SH171947 -17.9150 67.2576 -1 -18.6671 65.9587 99 -17.9150 67.2576 TC -17.8891 67.2684 2 10 239
1947041S16070 1947 16 SI MM NOT_NAMED 1947-02-12 00:00:00 TS -18.3224 66.7273 main 960 913 O____P___OP___ jtwc_sh SH171947 -18.2000 66.8000 -1 -18.7795 65.7193 99 -18.2000 66.8000 TC -18.1605 66.8205 2 10 242
1947041S16070 1947 16 SI MM NOT_NAMED 1947-02-12 03:00:00 TS -18.5507 66.2607 main 911 867 P____P___PP___ SH171947 -18.4225 66.3699 -1 -18.8882 65.4837 99 -18.4225 66.3699 TC -18.4016 66.3872 2 9 243
1947041S16070 1947 16 SI MM NOT_NAMED 1947-02-12 06:00:00 TS -18.7420 65.8503 main 867 831 O____P___OO___ jtwc_sh SH171947 -18.6000 66.0000 -1 -18.9940 65.2520 99 -18.6000 66.0000 TC -18.6000 66.0000 2 7 243
1947041S16070 1947 16 SI MM NOT_NAMED 1947-02-12 09:00:00 TS -18.8832 65.5669 main 831 808 P____P___PP___ SH171947 -18.7724 65.7274 -1 -19.0977 65.0241 99 -18.7724 65.7274 TC -18.7507 65.6991 2 5 242
1947041S16070 1947 16 SI MM NOT_NAMED 1947-02-12 12:00:00 TS -18.9922 65.3458 reunion main 798 775 O____O___OP___ jtwc_sh SH171947 -18.9000 65.5000 -1 -19.2000 64.8000 99 9.90000 -18.9000 65.5000 TC -18.8593 65.4468 2 5 243
1947041S16070 1947 16 SI MM NOT_NAMED 1947-02-12 15:00:00 TS -19.0942 65.1283 main 775 753 P____P___PP___ SH171947 -18.9650 65.2499 -1 -19.3121 64.5724 99 -18.9650 65.2499 TC -18.9383 65.2211 2 5 245
1947041S16070 1947 16 SI MM NOT_NAMED 1947-02-12 18:00:00 TS -19.1890 64.9069 main 753 730 O____P___OO___ jtwc_sh SH171947 -19.0000 65.0000 -1 -19.4231 64.3484 99 -19.0000 65.0000 TC -19.0000 65.0000 2 5 247
1947041S16070 1947 16 SI MM NOT_NAMED 1947-02-12 21:00:00 TS -19.2903 64.6475 main 720 697 P____P___PP___ SH171947 -19.0500 64.7500 -1 -19.5319 64.1283 99 -19.0500 64.7500 TC -19.0560 64.7619 2 5 248
1947041S16070 1947 16 SI MM NOT_NAMED 1947-02-13 00:00:00 TS -19.3849 64.3824 main 697 664 O____P___OP___ jtwc_sh SH171947 -19.1000 64.5000 -1 -19.6372 63.9125 99 -19.1000 64.5000 TC -19.0997 64.5221 2 5 250
1947041S16070 1947 16 SI MM NOT_NAMED 1947-02-13 03:00:00 TS -19.4662 64.1313 main 664 643 P____P___PP___ SH171947 -19.1424 64.2574 -1 -19.7378 63.7014 99 -19.1424 64.2574 TC -19.1435 64.2713 2 5 251
1947041S16070 1947 16 SI MM NOT_NAMED 1947-02-13 06:00:00 TS -19.5475 63.8850 main 643 621 O____P___OO___ jtwc_sh SH171947 -19.2000 64.0000 -1 -19.8326 63.4953 99 -19.2000 64.0000 TC -19.2000 64.0000 4 5 249
1947041S16070 1947 16 SI MM NOT_NAMED 1947-02-13 09:00:00 TS -19.6402 63.6418 main 611 588 P____P___PP___ SH171947 -19.2924 63.7150 -1 -19.9204 63.2947 99 -19.2924 63.7150 TC -19.2694 63.6964 4 5 248
1947041S16070 1947 16 SI MM NOT_NAMED 1947-02-13 12:00:00 TS -19.7374 63.3949 reunion main 588 566 O____O___OP___ jtwc_sh SH171947 -19.4000 63.4000 -1 -20.0000 63.1000 99 9.90000 -19.4000 63.4000 TC -19.3550 63.3722 4 5 248
1947041S16070 1947 16 SI MM NOT_NAMED 1947-02-13 15:00:00 TS -19.8277 63.1461 main 556 534 P____P___PP___ SH171947 -19.4850 63.0499 -1 -20.0574 62.9693 99 -19.4850 63.0499 TC -19.4631 63.0369 4 5 248
1947041S16070 1947 16 SI MM NOT_NAMED 1947-02-13 18:00:00 TS -19.9293 62.8932 main 534 512 O____P___OO___ jtwc_sh SH171947 -19.6000 62.7000 -1 -20.1052 62.8522 99 -19.6000 62.7000 TC -19.6000 62.7000 4 5 244
1947041S16070 1947 16 SI MM NOT_NAMED 1947-02-13 21:00:00 TS -20.0571 62.6426 main 501 479 P____P___PP___ SH171947 -19.7849 62.4000 -1 -20.1471 62.7357 99 -19.7849 62.4000 TC -19.7830 62.3913 4 5 241
1947041S16070 1947 16 SI MM NOT_NAMED 1947-02-14 00:00:00 TS -20.1970 62.3838 main 479 448 O____P___OP___ jtwc_sh SH171947 -20.0000 62.1000 -1 -20.1871 62.6065 99 -20.0000 62.1000 TC -19.9919 62.0801 4 6 241
1947041S16070 1947 16 SI MM NOT_NAMED 1947-02-14 03:00:00 TS -20.3376 62.1070 main 448 417 P____P___PP___ SH171947 -20.2149 61.7650 -1 -20.2287 62.4517 99 -20.2149 61.7650 TC -20.2048 61.7538 4 6 243
1947041S16070 1947 16 SI MM NOT_NAMED 1947-02-14 06:00:00 TS -20.4680 61.8225 main 417 396 O____P___OO___ jtwc_sh SH171947 -20.4000 61.4000 -1 -20.2757 62.2578 99 -20.4000 61.4000 TC -20.4000 61.4000 4 6 246
1947041S16070 1947 16 SI MM NOT_NAMED 1947-02-14 09:00:00 TS -20.5680 61.5546 main 397 366 P____P___PP___ SH171947 -20.5074 61.0148 -1 -20.3316 62.0117 99 -20.5074 61.0148 TC -20.5466 61.0034 4 6 249
1947041S16070 1947 16 SI MM NOT_NAMED 1947-02-14 12:00:00 TS -20.6630 61.2658 reunion main 367 327 O____O___OP___ jtwc_sh SH171947 -20.6000 60.6000 -1 -20.4000 61.7000 99 9.90000 -20.6000 60.6000 TC -20.6725 60.5795 4 6 251
1947041S16070 1947 16 SI MM NOT_NAMED 1947-02-14 15:00:00 TS -20.7707 60.9231 main 327 299 P____P___PP___ SH171947 -20.7500 60.1501 -1 -20.4528 61.2315 99 -20.7500 60.1501 TC -20.7871 60.1409 4 7 252
1947041S16070 1947 16 SI MM NOT_NAMED 1947-02-14 18:00:00 TS -20.8873 60.5273 main 288 251 O____P___OO___ jtwc_sh SH171947 -20.9000 59.7000 -1 -20.5108 60.6914 99 -20.9000 59.7000 TC -20.9000 59.7000 4 8 254
1947041S16070 1947 16 SI MM NOT_NAMED 1947-02-14 21:00:00 TS -21.0051 60.0724 main 251 207 P____P___PP___ SH171947 -20.9998 59.2998 -1 -20.5798 60.1020 99 -20.9998 59.2998 TC -21.0372 59.2548 4 9 254
1947041S16070 1947 16 SI MM NOT_NAMED 1947-02-15 00:00:00 TS -21.1420 59.5759 main 207 170 O____P___OP___ jtwc_sh SH171947 -21.1000 58.9000 -1 -20.6654 59.4859 99 -21.1000 58.9000 TC -21.1726 58.8128 4 10 252
1947041S16070 1947 16 SI MM NOT_NAMED 1947-02-15 03:00:00 TS -21.3179 59.0577 main 170 144 P____P___PP___ SH171947 -21.2575 58.4427 -1 -20.7737 58.8654 99 -21.2575 58.4427 TC -21.2966 58.3893 4 10 249
1947041S16070 1947 16 SI MM NOT_NAMED 1947-02-15 06:00:00 TS -21.5016 58.5518 main 145 129 O____P___OO___ jtwc_sh SH171947 -21.4000 58.0000 -1 -20.9110 58.2628 99 -21.4000 58.0000 TC -21.4000 58.0000 4 10 249
1947041S16070 1947 16 SI MM NOT_NAMED 1947-02-15 09:00:00 TS -21.6595 58.0931 main 140 135 P____P___PP___ SH171947 -21.4649 57.6199 -1 -21.0842 57.7002 99 -21.4649 57.6199 TC -21.4670 57.6596 4 9 249
1947041S16070 1947 16 SI MM NOT_NAMED 1947-02-15 12:00:00 TS -21.8142 57.6767 reunion main 145 145 O____O___OP___ jtwc_sh SH171947 -21.5000 57.3000 -1 -21.3000 57.2000 99 9.90000 -21.5000 57.3000 TC -21.5144 57.3544 4 8 247
1947041S16070 1947 16 SI MM NOT_NAMED 1947-02-15 15:00:00 TS -21.9746 57.3029 main 167 152 P____P___PP___ SH171947 -21.5499 57.0425 -1 -21.5259 56.7918 99 -21.5499 57.0425 TC -21.5546 57.0721 4 7 244
1947041S16070 1947 16 SI MM NOT_NAMED 1947-02-15 18:00:00 TS -22.1415 56.9617 main 152 136 O____P___OO___ jtwc_sh SH171947 -21.6000 56.8000 -1 -21.7907 56.4321 99 -21.6000 56.8000 TC -21.6000 56.8000 4 7 241
1947041S16070 1947 16 SI MM NOT_NAMED 1947-02-15 21:00:00 TS -22.3124 56.6327 main 138 138 P____P___PP___ SH171947 -21.6425 56.5000 -1 -22.0963 56.1211 99 -21.6425 56.5000 TC -21.6600 56.5275 4 7 232
1947041S16070 1947 16 SI MM NOT_NAMED 1947-02-16 00:00:00 TS -22.5898 56.3488 main 152 152 O____P___OP___ jtwc_sh SH171947 -21.7000 56.2000 -1 -22.4446 55.8588 99 -21.7000 56.2000 TC -21.7330 56.2530 4 8 218
1947041S16070 1947 16 SI MM NOT_NAMED 1947-02-16 03:00:00 TS -22.9412 56.1086 main 175 175 P____P___PP___ SH171947 -21.6276 55.9122 -1 -22.8373 55.6452 99 -21.7900 55.9376 TC -21.8145 55.9770 4 9 207
1947041S16070 1947 16 SI MM NOT_NAMED 1947-02-16 06:00:00 TS -23.3897 55.9064 main 225 225 O____P___OO___ jtwc_sh SH171947 -21.9000 55.7000 -1 -23.2762 55.4807 99 -21.9000 55.7000 TC -21.9000 55.7000 4 11 199
1947041S16070 1947 16 SI MM NOT_NAMED 1947-02-16 09:00:00 TS -23.9617 55.7150 main 290 290 P____P________ SH171947 -23.0699 55.6495 -1 -23.7632 55.3654 99 TC 4 10 203
1947041S16070 1947 16 SI MM NOT_NAMED 1947-02-16 12:00:00 TS -24.2788 55.5025 reunion main 324 324 O____O________ jtwc_sh SH161947 -24.3000 55.6000 -1 -24.3000 55.3000 99 9.90000 4 8 210
1947041S16070 1947 16 SI MM NOT_NAMED 1947-02-16 15:00:00 TS -24.6215 55.2945 main 359 359 P____P________ SH161947 -24.6826 55.3572 -1 -24.9071 55.2531 99 4 9 203
1947041S16070 1947 16 SI MM NOT_NAMED 1947-02-16 18:00:00 TS -25.0682 55.1403 main 416 416 O____P________ jtwc_sh SH161947 -24.9000 55.1000 -1 -25.5729 55.2614 99 11 192
1947041S16070 1947 16 SI MM NOT_NAMED 1947-02-16 21:00:00 TS -25.6860 55.0505 main 483 483 P____P________ SH161947 -25.4825 54.9478 -1 -26.2815 55.3182 99 13 184
1947041S16070 1947 16 SI MM NOT_NAMED 1947-02-17 00:00:00 TS -26.4066 55.0421 main 562 562 O____P________ jtwc_sh SH161947 -26.2000 54.9000 -1 -27.0167 55.4173 99 15 178
1947041S16070 1947 16 SI MM NOT_NAMED 1947-02-17 03:00:00 TS -27.1609 55.1088 main 650 650 P____P________ SH161947 -26.9574 54.9474 -1 -27.7622 55.5519 99 15 173
1947041S16070 1947 16 SI MM NOT_NAMED 1947-02-17 06:00:00 TS -27.9005 55.2538 main 726 726 O____P________ jtwc_sh SH161947 -27.7000 55.1000 -1 -28.5021 55.7153 99 14 167
1947041S16070 1947 16 SI MM NOT_NAMED 1947-02-17 09:00:00 TS -28.5508 55.4571 main 804 804 P____P________ SH161947 -28.3300 55.3274 -1 -29.2200 55.9005 99 13 162
1947041S16070 1947 16 SI MM NOT_NAMED 1947-02-17 12:00:00 TS -29.1525 55.7041 reunion main 871 871 O____O________ jtwc_sh SH161947 -28.9000 55.6000 -1 -29.9000 56.1000 99 9.90000 13 160
1947041S16070 1947 16 SI MM NOT_NAMED 1947-02-17 15:00:00 TS -29.7298 55.9451 main 927 927 P____P________ SH161947 -29.4649 55.8429 -1 -30.5224 56.2931 99 12 159
1947041S16070 1947 16 SI MM NOT_NAMED 1947-02-17 18:00:00 TS -30.2795 56.2024 main 995 995 O____P________ jtwc_sh SH161947 -30.0000 56.1000 -1 -31.1182 56.5096 99 12 157
1947041S16070 1947 16 SI MM NOT_NAMED 1947-02-17 21:00:00 TS -30.8074 56.4798 main 1053 1053 P____P________ SH161947 -30.5075 56.4001 -1 -31.6849 56.7427 99 11 155
1947041S16070 1947 16 SI MM NOT_NAMED 1947-02-18 00:00:00 TS -31.3144 56.7608 main 1112 1112 O____P________ jtwc_sh SH161947 -31.0000 56.7000 -1 -32.2203 56.9851 99 11 155
1947041S16070 1947 16 SI MM NOT_NAMED 1947-02-18 03:00:00 TS -31.8158 57.0203 main 1169 1169 P____P________ SH161947 -31.5074 56.9578 -1 -32.7219 57.2298 99 11 156
1947041S16070 1947 16 SI MM NOT_NAMED 1947-02-18 06:00:00 TS -32.2968 57.2672 main 1228 1228 O____P________ jtwc_sh SH161947 -32.0000 57.2000 -1 -33.1873 57.4690 99 10 156
1947041S16070 1947 16 SI MM NOT_NAMED 1947-02-18 09:00:00 TS -32.7475 57.5136 main 1275 1275 P____P________ SH161947 -32.4575 57.4577 -1 -33.6141 57.6950 99 10 157
1947041S16070 1947 16 SI MM NOT_NAMED 1947-02-18 12:00:00 TS -33.2414 57.7549 reunion main 1335 1335 O____O________ jtwc_sh SH161947 -32.9000 57.7000 -1 -34.0000 57.9000 99 9.90000 11 159
1947041S16070 1947 16 SI MM NOT_NAMED 1947-02-18 15:00:00 TS -33.7482 57.9725 main 1393 1393 P____P________ SH161947 -33.3475 57.9097 -1 -34.3440 58.0778 99 11 162
1947041S16070 1947 16 SI MM NOT_NAMED 1947-02-18 18:00:00 TS -34.2859 58.1741 main 1462 1462 O____P________ jtwc_sh SH161947 -33.8000 58.1000 -1 -34.6504 58.2297 99 12 165
1947041S16070 1947 16 SI MM NOT_NAMED 1947-02-18 21:00:00 NR -34.9244 58.3593 main 1531 1531 _____P________ SH161947 -1 -34.9244 58.3593 99 9 165
1947041S16070 1947 16 SI MM NOT_NAMED 1947-02-19 00:00:00 NR -35.1717 58.4701 main 1566 1566 _____P________ -1 -35.1717 58.4701 99 5 160
1947041S16070 1947 16 SI MM NOT_NAMED 1947-02-19 03:00:00 NR -35.3975 58.5658 main 1589 1589 _____P________ -1 -35.3975 58.5658 99 5 161
1947041S16070 1947 16 SI MM NOT_NAMED 1947-02-19 06:00:00 NR -35.6073 58.6500 main 1613 1613 _____P________ -1 -35.6073 58.6500 99 4 162
1947041S16070 1947 16 SI MM NOT_NAMED 1947-02-19 09:00:00 NR -35.8063 58.7268 main 1634 1634 _____P________ -1 -35.8063 58.7268 99 4 163
1947041S16070 1947 16 SI MM NOT_NAMED 1947-02-19 12:00:00 NR -36.0000 58.8000 reunion main 1642 _____O________ -1 -36.0000 58.8000 99 9.90000 4 164

IBTrACS Databaseについて

本データベースは、米国NOAAが公開する1842年以降の世界の熱帯低気圧のベストトラックデータアーカイブInternational Best Track Archive for Climate Stewardship (IBTrACS)を、ウェブで閲覧しやすい形式に変換したものです。

最終更新日:2021-10-21